McCoy, Texas
Current Conditions -  °F | °C
As of 8:55 AM on Monday 24 Nov 2014 (Local Time) from KPEZ Reporting Station
Clear Clear  
Wind Chill: 55°   Ceiling: Unl
Heat Index: 55°   Visibility: 10mi
Dew Point: 37°   Wind: 8mph
Humidity: 51%   Direction: 330°NNW
Pressure: 30.11"   Gusts: NA
Location:  28.86°N, 98.35°W
Report Text: KPEZ 241455Z AUTO 33007KT 10SM CLR 13/03 A3011 RMK AO2 T01270029
Loading
Personal Weather Stations






























Interactive Weather Map New forecast layout! Learn more

10-Day Weather Forecast

Advertisements
Track Severe Weather on mobile